createdAt,value
2024-04-25T00:33:59.688Z,0.98
2024-04-25T00:44:01.199Z,0.88
2024-04-25T00:54:02.602Z,1.00
2024-04-25T01:04:04.066Z,0.80
2024-04-25T01:14:06.557Z,0.90
2024-04-25T01:24:08.064Z,0.80
2024-04-25T01:34:09.449Z,1.00
2024-04-25T01:44:10.860Z,0.73
2024-04-25T01:54:12.292Z,1.00
2024-04-25T02:04:13.758Z,1.00
2024-04-25T02:14:15.163Z,0.80
2024-04-25T02:24:16.554Z,0.88
2024-04-25T02:34:18.068Z,1.08
2024-04-25T02:44:19.553Z,0.70
2024-04-25T02:54:21.053Z,0.80
2024-04-25T03:04:22.475Z,0.60
2024-04-25T03:14:23.860Z,0.70
2024-04-25T03:24:25.266Z,0.68
2024-04-25T03:34:26.653Z,0.70
2024-04-25T03:44:28.072Z,0.65
2024-04-25T03:54:31.692Z,0.65
2024-04-25T04:04:33.117Z,0.90
2024-04-25T04:14:34.621Z,0.90
2024-04-25T04:24:36.242Z,1.15
2024-04-25T04:34:38.668Z,0.70
2024-04-25T04:44:40.112Z,0.80
2024-04-25T04:54:41.513Z,0.80
2024-04-25T05:04:42.950Z,0.63
2024-04-25T05:14:44.342Z,1.00
2024-04-25T05:24:45.775Z,0.98
2024-04-25T05:34:47.225Z,1.00
2024-04-25T05:44:48.678Z,0.88
2024-04-25T05:54:50.051Z,0.93
2024-04-25T06:04:51.455Z,0.75
2024-04-25T06:14:52.871Z,0.70
2024-04-25T06:24:54.258Z,0.85
2024-04-25T06:34:55.627Z,0.90
2024-04-25T06:44:57.067Z,0.93
2024-04-25T06:54:58.480Z,1.10
2024-04-25T07:05:00.264Z,0.98
2024-04-25T07:15:01.957Z,1.00
2024-04-25T07:25:03.385Z,0.85
2024-04-25T07:35:04.816Z,0.77
2024-04-25T07:45:06.198Z,0.70
2024-04-25T07:55:07.579Z,0.85
2024-04-25T08:05:10.364Z,0.80
2024-04-25T08:15:11.841Z,0.80
2024-04-25T08:25:20.435Z,0.95
2024-04-25T08:45:50.476Z,0.93
2024-04-25T08:55:51.988Z,0.93
2024-04-25T09:06:01.934Z,1.02
2024-04-25T09:16:06.461Z,0.80
2024-04-25T09:26:12.702Z,0.80
2024-04-25T09:36:23.410Z,1.20
2024-04-25T09:46:32.392Z,0.93
2024-04-25T09:56:40.511Z,0.95
2024-04-25T10:06:48.398Z,1.00
2024-04-25T10:16:57.647Z,1.55
2024-04-25T10:27:04.493Z,0.97
2024-04-25T10:37:12.455Z,1.02
2024-04-25T10:47:21.511Z,1.02
2024-04-25T10:57:29.509Z,1.00
2024-04-25T11:07:37.451Z,1.00
2024-04-25T11:17:56.401Z,1.25
2024-04-25T11:28:05.290Z,1.15
2024-04-25T11:38:06.692Z,0.90
2024-04-25T11:48:10.501Z,1.13
2024-04-25T12:08:47.067Z,1.05
2024-04-25T12:18:56.912Z,0.73
2024-04-25T12:28:58.374Z,1.08
2024-04-25T12:38:59.744Z,1.02
2024-04-25T12:49:01.344Z,1.02
2024-04-25T12:59:14.420Z,1.05
2024-04-25T13:09:16.688Z,1.00
2024-04-25T13:19:25.638Z,1.13
2024-04-25T13:29:33.497Z,1.25
2024-04-25T13:39:41.467Z,1.45
2024-04-25T13:49:49.434Z,1.30
2024-04-25T14:00:00.501Z,1.08
2024-04-25T14:10:06.666Z,0.97
2024-04-25T14:30:38.570Z,1.15
2024-04-25T14:51:08.967Z,1.30
2024-04-25T15:01:10.534Z,1.20
2024-04-25T15:11:12.235Z,1.10
2024-04-25T15:31:42.812Z,1.15
2024-04-25T15:41:44.388Z,1.05
2024-04-25T15:51:45.877Z,1.05
2024-04-25T16:01:50.862Z,1.20
2024-04-25T16:11:52.416Z,1.20
2024-04-25T16:21:53.890Z,1.10
2024-04-25T16:32:00.827Z,1.10
2024-04-25T16:42:10.525Z,1.20
2024-04-25T16:52:18.516Z,1.20
2024-04-25T17:02:27.566Z,1.27
2024-04-25T17:12:35.784Z,1.05
2024-04-25T17:22:41.802Z,1.15
2024-04-25T17:32:43.454Z,1.10
2024-04-25T17:53:16.411Z,1.50
2024-04-25T18:03:17.888Z,1.50
2024-04-25T18:13:25.530Z,1.40
2024-04-25T18:23:32.512Z,1.50
2024-04-25T18:33:34.121Z,1.27
2024-04-25T18:43:35.670Z,1.48
2024-04-25T18:53:37.084Z,1.10
2024-04-25T19:03:38.583Z,1.60
2024-04-25T19:13:39.999Z,1.50
2024-04-25T19:23:41.434Z,1.40
2024-04-25T19:33:43.156Z,1.38
2024-04-25T19:43:44.677Z,1.42
2024-04-25T19:53:46.152Z,1.38
2024-04-25T20:03:48.942Z,1.40
2024-04-25T20:13:54.474Z,1.60
2024-04-25T20:23:56.083Z,1.40
2024-04-25T20:33:57.749Z,1.40
2024-04-25T20:43:59.171Z,1.30
2024-04-25T20:54:00.682Z,1.70
2024-04-25T21:04:02.172Z,1.40
2024-04-25T21:14:03.658Z,1.40
2024-04-25T21:24:05.026Z,1.30
2024-04-25T21:34:06.583Z,1.27
2024-04-25T21:44:08.112Z,1.50
2024-04-25T21:54:09.523Z,1.52
2024-04-25T22:04:10.914Z,1.58
2024-04-25T22:14:12.415Z,1.40
2024-04-25T22:24:13.910Z,1.35
2024-04-25T22:34:17.980Z,1.40
2024-04-25T22:44:19.764Z,1.70
2024-04-25T22:54:21.271Z,1.50
2024-04-25T23:04:22.784Z,1.50
2024-04-25T23:14:30.088Z,1.40
2024-04-25T23:24:33.580Z,1.50
2024-04-25T23:34:39.692Z,1.50
2024-04-25T23:44:41.330Z,1.60
2024-04-25T23:54:42.826Z,1.60
